sensor_id;sensor_type;location;lat;lon;timestamp;pressure;altitude;pressure_sealevel;temperature;humidity
66381;BME280;53177;52.648;1.214;2023-08-06T00:01:25;100363.59;;;11.74;100.00
66381;BME280;53177;52.648;1.214;2023-08-06T00:03:51;100353.97;;;11.71;100.00
66381;BME280;53177;52.648;1.214;2023-08-06T00:06:16;100362.84;;;11.68;100.00
66381;BME280;53177;52.648;1.214;2023-08-06T00:08:42;100353.13;;;11.69;100.00
66381;BME280;53177;52.648;1.214;2023-08-06T00:11:07;100362.81;;;11.70;100.00
66381;BME280;53177;52.648;1.214;2023-08-06T00:13:33;100362.19;;;11.62;100.00
66381;BME280;53177;52.648;1.214;2023-08-06T00:16:12;100364.84;;;11.62;100.00
66381;BME280;53177;52.648;1.214;2023-08-06T00:18:38;100365.81;;;11.59;100.00
66381;BME280;53177;52.648;1.214;2023-08-06T00:21:04;100377.31;;;11.58;100.00
66381;BME280;53177;52.648;1.214;2023-08-06T00:23:29;100380.06;;;11.55;100.00
66381;BME280;53177;52.648;1.214;2023-08-06T00:25:55;100375.66;;;11.54;100.00
66381;BME280;53177;52.648;1.214;2023-08-06T00:28:20;100377.59;;;11.49;100.00
66381;BME280;53177;52.648;1.214;2023-08-06T00:30:45;100381.06;;;11.51;100.00
66381;BME280;53177;52.648;1.214;2023-08-06T00:33:11;100380.22;;;11.49;100.00
66381;BME280;53177;52.648;1.214;2023-08-06T00:35:36;100377.56;;;11.51;100.00
66381;BME280;53177;52.648;1.214;2023-08-06T00:38:01;100375.00;;;11.48;100.00
66381;BME280;53177;52.648;1.214;2023-08-06T00:40:27;100382.88;;;11.49;100.00
66381;BME280;53177;52.648;1.214;2023-08-06T00:42:55;100385.63;;;11.46;100.00
66381;BME280;53177;52.648;1.214;2023-08-06T00:45:20;100384.88;;;11.43;100.00
66381;BME280;53177;52.648;1.214;2023-08-06T00:47:47;100387.41;;;11.46;100.00
66381;BME280;53177;52.648;1.214;2023-08-06T00:50:13;100384.72;;;11.47;100.00
66381;BME280;53177;52.648;1.214;2023-08-06T00:52:38;100387.28;;;11.50;100.00
66381;BME280;53177;52.648;1.214;2023-08-06T00:55:04;100386.41;;;11.50;100.00
66381;BME280;53177;52.648;1.214;2023-08-06T00:57:31;100396.06;;;11.52;100.00
66381;BME280;53177;52.648;1.214;2023-08-06T00:59:56;100399.41;;;11.57;100.00
66381;BME280;53177;52.648;1.214;2023-08-06T01:02:22;100417.13;;;11.55;100.00
66381;BME280;53177;52.648;1.214;2023-08-06T01:04:47;100404.81;;;11.54;100.00
66381;BME280;53177;52.648;1.214;2023-08-06T01:07:37;100418.88;;;11.56;100.00
66381;BME280;53177;52.648;1.214;2023-08-06T01:12:47;100404.75;;;11.56;100.00
66381;BME280;53177;52.648;1.214;2023-08-06T01:15:18;100408.41;;;11.52;100.00
66381;BME280;53177;52.648;1.214;2023-08-06T01:17:45;100410.16;;;11.53;100.00
66381;BME280;53177;52.648;1.214;2023-08-06T01:20:10;100409.19;;;11.55;100.00
66381;BME280;53177;52.648;1.214;2023-08-06T01:22:36;100417.94;;;11.57;100.00
66381;BME280;53177;52.648;1.214;2023-08-06T01:25:02;100416.28;;;11.53;100.00
66381;BME280;53177;52.648;1.214;2023-08-06T01:30:03;100421.41;;;11.59;100.00
66381;BME280;53177;52.648;1.214;2023-08-06T01:32:34;100429.41;;;11.58;100.00
66381;BME280;53177;52.648;1.214;2023-08-06T01:35:01;100433.66;;;11.63;100.00
66381;BME280;53177;52.648;1.214;2023-08-06T01:37:27;100430.06;;;11.64;100.00
66381;BME280;53177;52.648;1.214;2023-08-06T01:39:53;100435.53;;;11.60;100.00
66381;BME280;53177;52.648;1.214;2023-08-06T01:42:19;100430.16;;;11.61;100.00
66381;BME280;53177;52.648;1.214;2023-08-06T01:44:44;100429.47;;;11.56;100.00
66381;BME280;53177;52.648;1.214;2023-08-06T01:47:09;100427.81;;;11.52;100.00
66381;BME280;53177;52.648;1.214;2023-08-06T01:49:35;100440.22;;;11.50;100.00
66381;BME280;53177;52.648;1.214;2023-08-06T01:52:00;100434.13;;;11.48;100.00
66381;BME280;53177;52.648;1.214;2023-08-06T01:54:26;100442.06;;;11.48;100.00
66381;BME280;53177;52.648;1.214;2023-08-06T01:56:52;100446.38;;;11.52;100.00
66381;BME280;53177;52.648;1.214;2023-08-06T01:59:18;100448.13;;;11.52;100.00
66381;BME280;53177;52.648;1.214;2023-08-06T02:01:43;100449.78;;;11.56;100.00
66381;BME280;53177;52.648;1.214;2023-08-06T02:04:08;100443.50;;;11.58;100.00
66381;BME280;53177;52.648;1.214;2023-08-06T02:06:34;100447.31;;;11.50;100.00
66381;BME280;53177;52.648;1.214;2023-08-06T02:08:59;100445.53;;;11.50;100.00
66381;BME280;53177;52.648;1.214;2023-08-06T02:11:24;100455.22;;;11.51;100.00
66381;BME280;53177;52.648;1.214;2023-08-06T02:13:50;100456.31;;;11.44;100.00
66381;BME280;53177;52.648;1.214;2023-08-06T02:16:15;100442.25;;;11.42;100.00
66381;BME280;53177;52.648;1.214;2023-08-06T02:18:40;100451.03;;;11.44;100.00
66381;BME280;53177;52.648;1.214;2023-08-06T02:21:06;100449.41;;;11.39;100.00
66381;BME280;53177;52.648;1.214;2023-08-06T02:23:31;100451.25;;;11.37;100.00
66381;BME280;53177;52.648;1.214;2023-08-06T02:26:05;100446.00;;;11.35;100.00
66381;BME280;53177;52.648;1.214;2023-08-06T02:28:31;100451.19;;;11.38;100.00
66381;BME280;53177;52.648;1.214;2023-08-06T02:30:57;100456.66;;;11.34;100.00
66381;BME280;53177;52.648;1.214;2023-08-06T02:33:23;100453.06;;;11.35;100.00
66381;BME280;53177;52.648;1.214;2023-08-06T02:35:48;100461.19;;;11.29;100.00
66381;BME280;53177;52.648;1.214;2023-08-06T02:38:13;100464.81;;;11.26;100.00
66381;BME280;53177;52.648;1.214;2023-08-06T02:40:45;100454.31;;;11.23;100.00
66381;BME280;53177;52.648;1.214;2023-08-06T02:43:11;100459.66;;;11.21;100.00
66381;BME280;53177;52.648;1.214;2023-08-06T02:45:37;100461.53;;;11.18;100.00
66381;BME280;53177;52.648;1.214;2023-08-06T02:48:02;100459.78;;;11.17;100.00
66381;BME280;53177;52.648;1.214;2023-08-06T02:50:29;100456.22;;;11.18;100.00
66381;BME280;53177;52.648;1.214;2023-08-06T02:52:54;100451.81;;;11.18;100.00
66381;BME280;53177;52.648;1.214;2023-08-06T02:55:20;100455.31;;;11.19;100.00
66381;BME280;53177;52.648;1.214;2023-08-06T02:57:45;100444.78;;;11.17;100.00
66381;BME280;53177;52.648;1.214;2023-08-06T03:00:12;100451.94;;;11.14;100.00
66381;BME280;53177;52.648;1.214;2023-08-06T03:02:38;100448.38;;;11.15;100.00
66381;BME280;53177;52.648;1.214;2023-08-06T03:05:04;100439.56;;;11.14;100.00
66381;BME280;53177;52.648;1.214;2023-08-06T03:07:29;100440.47;;;11.13;100.00
66381;BME280;53177;52.648;1.214;2023-08-06T03:09:55;100447.50;;;11.14;100.00
66381;BME280;53177;52.648;1.214;2023-08-06T03:12:20;100441.34;;;11.14;100.00
66381;BME280;53177;52.648;1.214;2023-08-06T03:14:46;100453.59;;;11.16;100.00
66381;BME280;53177;52.648;1.214;2023-08-06T03:17:12;100452.69;;;11.19;100.00
66381;BME280;53177;52.648;1.214;2023-08-06T03:19:37;100452.69;;;11.19;100.00
66381;BME280;53177;52.648;1.214;2023-08-06T03:22:03;100450.16;;;11.14;100.00
66381;BME280;53177;52.648;1.214;2023-08-06T03:24:28;100460.84;;;11.11;100.00
66381;BME280;53177;52.648;1.214;2023-08-06T03:26:53;100449.28;;;11.14;100.00
66381;BME280;53177;52.648;1.214;2023-08-06T03:29:19;100454.59;;;11.12;100.00
66381;BME280;53177;52.648;1.214;2023-08-06T03:31:45;100451.13;;;11.12;100.00
66381;BME280;53177;52.648;1.214;2023-08-06T03:34:10;100460.78;;;11.13;100.00
66381;BME280;53177;52.648;1.214;2023-08-06T03:36:35;100454.75;;;11.08;100.00
66381;BME280;53177;52.648;1.214;2023-08-06T03:39:01;100456.41;;;11.12;100.00
66381;BME280;53177;52.648;1.214;2023-08-06T03:41:26;100457.25;;;11.12;100.00
66381;BME280;53177;52.648;1.214;2023-08-06T03:43:51;100463.50;;;11.10;100.00
66381;BME280;53177;52.648;1.214;2023-08-06T03:46:17;100472.28;;;11.12;100.00
66381;BME280;53177;52.648;1.214;2023-08-06T03:48:42;100466.06;;;11.13;100.00
66381;BME280;53177;52.648;1.214;2023-08-06T03:51:08;100470.44;;;11.15;100.00
66381;BME280;53177;52.648;1.214;2023-08-06T03:53:37;100464.28;;;11.13;100.00
66381;BME280;53177;52.648;1.214;2023-08-06T03:56:06;100475.66;;;11.17;100.00
66381;BME280;53177;52.648;1.214;2023-08-06T03:58:35;100473.91;;;11.16;100.00
66381;BME280;53177;52.648;1.214;2023-08-06T04:01:07;100472.19;;;11.15;100.00
66381;BME280;53177;52.648;1.214;2023-08-06T04:03:34;100474.88;;;11.13;100.00
66381;BME280;53177;52.648;1.214;2023-08-06T04:05:59;100479.28;;;11.14;100.00
66381;BME280;53177;52.648;1.214;2023-08-06T04:08:26;100483.66;;;11.15;100.00
66381;BME280;53177;52.648;1.214;2023-08-06T04:10:52;100476.50;;;11.19;100.00
66381;BME280;53177;52.648;1.214;2023-08-06T04:13:18;100484.44;;;11.19;100.00
66381;BME280;53177;52.648;1.214;2023-08-06T04:15:44;100487.09;;;11.19;100.00
66381;BME280;53177;52.648;1.214;2023-08-06T04:18:09;100492.31;;;11.20;100.00
66381;BME280;53177;52.648;1.214;2023-08-06T04:20:35;100491.44;;;11.20;100.00
66381;BME280;53177;52.648;1.214;2023-08-06T04:23:05;100492.19;;;11.25;100.00
66381;BME280;53177;52.648;1.214;2023-08-06T04:25:31;100494.09;;;11.20;100.00
66381;BME280;53177;52.648;1.214;2023-08-06T04:27:56;100502.91;;;11.20;100.00
66381;BME280;53177;52.648;1.214;2023-08-06T04:30:23;100502.78;;;11.25;100.00
66381;BME280;53177;52.648;1.214;2023-08-06T04:32:49;100520.50;;;11.23;100.00
66381;BME280;53177;52.648;1.214;2023-08-06T04:35:15;100511.69;;;11.22;100.00
66381;BME280;53177;52.648;1.214;2023-08-06T04:37:40;100503.66;;;11.26;100.00
66381;BME280;53177;52.648;1.214;2023-08-06T04:40:06;100503.78;;;11.21;100.00
66381;BME280;53177;52.648;1.214;2023-08-06T04:42:31;100510.03;;;11.18;100.00
66381;BME280;53177;52.648;1.214;2023-08-06T04:44:56;100508.97;;;11.24;100.00
66381;BME280;53177;52.648;1.214;2023-08-06T04:47:22;100508.94;;;11.26;100.00
66381;BME280;53177;52.648;1.214;2023-08-06T04:49:47;100515.09;;;11.26;100.00
66381;BME280;53177;52.648;1.214;2023-08-06T04:52:12;100511.50;;;11.29;100.00
66381;BME280;53177;52.648;1.214;2023-08-06T04:54:38;100517.69;;;11.28;100.00
66381;BME280;53177;52.648;1.214;2023-08-06T04:57:03;100513.34;;;11.27;100.00
66381;BME280;53177;52.648;1.214;2023-08-06T04:59:29;100515.91;;;11.28;100.00
66381;BME280;53177;52.648;1.214;2023-08-06T05:01:54;100527.50;;;11.24;100.00
66381;BME280;53177;52.648;1.214;2023-08-06T05:04:20;100517.69;;;11.28;100.00
66381;BME280;53177;52.648;1.214;2023-08-06T05:06:45;100516.75;;;11.30;100.00
66381;BME280;53177;52.648;1.214;2023-08-06T05:09:10;100523.75;;;11.31;100.00
66381;BME280;53177;52.648;1.214;2023-08-06T05:11:36;100540.53;;;11.32;100.00
66381;BME280;53177;52.648;1.214;2023-08-06T05:14:01;100540.53;;;11.32;100.00
66381;BME280;53177;52.648;1.214;2023-08-06T05:16:26;100536.06;;;11.34;100.00
66381;BME280;53177;52.648;1.214;2023-08-06T05:18:52;100552.88;;;11.31;100.00
66381;BME280;53177;52.648;1.214;2023-08-06T05:21:17;100544.03;;;11.32;100.00
66381;BME280;53177;52.648;1.214;2023-08-06T05:23:43;100559.94;;;11.32;100.00
66381;BME280;53177;52.648;1.214;2023-08-06T05:26:08;100567.78;;;11.35;100.00
66381;BME280;53177;52.648;1.214;2023-08-06T05:28:34;100566.06;;;11.34;100.00
66381;BME280;53177;52.648;1.214;2023-08-06T05:31:04;100566.69;;;11.42;100.00
66381;BME280;53177;52.648;1.214;2023-08-06T05:33:30;100573.53;;;11.49;100.00
66381;BME280;53177;52.648;1.214;2023-08-06T05:35:56;100569.00;;;11.54;100.00
66381;BME280;53177;52.648;1.214;2023-08-06T05:38:21;100580.47;;;11.55;100.00
66381;BME280;53177;52.648;1.214;2023-08-06T05:40:46;100566.44;;;11.51;100.00
66381;BME280;53177;52.648;1.214;2023-08-06T05:43:12;100576.94;;;11.54;100.00
66381;BME280;53177;52.648;1.214;2023-08-06T05:45:38;100578.59;;;11.58;100.00
66381;BME280;53177;52.648;1.214;2023-08-06T05:48:03;100587.31;;;11.62;100.00
66381;BME280;53177;52.648;1.214;2023-08-06T05:50:30;100579.41;;;11.60;100.00
66381;BME280;53177;52.648;1.214;2023-08-06T05:52:56;100582.28;;;11.53;100.00
66381;BME280;53177;52.648;1.214;2023-08-06T05:55:21;100583.19;;;11.52;100.00
66381;BME280;53177;52.648;1.214;2023-08-06T05:57:47;100595.53;;;11.53;100.00
66381;BME280;53177;52.648;1.214;2023-08-06T06:00:13;100592.72;;;11.57;100.00
66381;BME280;53177;52.648;1.214;2023-08-06T06:02:39;100605.03;;;11.60;100.00
66381;BME280;53177;52.648;1.214;2023-08-06T06:05:04;100604.06;;;11.62;100.00
66381;BME280;53177;52.648;1.214;2023-08-06T06:07:30;100607.22;;;11.77;100.00
66381;BME280;53177;52.648;1.214;2023-08-06T06:09:55;100605.41;;;11.79;100.00
66381;BME280;53177;52.648;1.214;2023-08-06T06:12:20;100612.28;;;11.84;100.00
66381;BME280;53177;52.648;1.214;2023-08-06T06:14:47;100611.88;;;11.98;100.00
66381;BME280;53177;52.648;1.214;2023-08-06T06:17:12;100629.38;;;12.03;100.00
66381;BME280;53177;52.648;1.214;2023-08-06T06:19:38;100624.78;;;12.08;100.00
66381;BME280;53177;52.648;1.214;2023-08-06T06:22:03;100624.78;;;12.08;100.00
66381;BME280;53177;52.648;1.214;2023-08-06T06:24:29;100623.97;;;12.08;100.00
66381;BME280;53177;52.648;1.214;2023-08-06T06:26:54;100619.38;;;12.13;100.00
66381;BME280;53177;52.648;1.214;2023-08-06T06:29:19;100630.19;;;12.05;100.00
66381;BME280;53177;52.648;1.214;2023-08-06T06:31:45;100633.03;;;11.99;100.00
66381;BME280;53177;52.648;1.214;2023-08-06T06:34:10;100641.53;;;11.81;100.00
66381;BME280;53177;52.648;1.214;2023-08-06T06:36:35;100636.63;;;11.66;100.00
66381;BME280;53177;52.648;1.214;2023-08-06T06:39:01;100638.53;;;11.61;100.00
66381;BME280;53177;52.648;1.214;2023-08-06T06:41:26;100643.97;;;11.56;100.00
66381;BME280;53177;52.648;1.214;2023-08-06T06:43:54;100656.59;;;11.47;100.00
66381;BME280;53177;52.648;1.214;2023-08-06T06:46:20;100657.34;;;11.52;100.00
66381;BME280;53177;52.648;1.214;2023-08-06T06:48:45;100664.44;;;11.50;100.00
66381;BME280;53177;52.648;1.214;2023-08-06T06:51:10;100670.69;;;11.49;100.00
66381;BME280;53177;52.648;1.214;2023-08-06T06:53:36;100670.72;;;11.46;100.00
66381;BME280;53177;52.648;1.214;2023-08-06T06:56:03;100667.28;;;11.44;100.00
66381;BME280;53177;52.648;1.214;2023-08-06T06:58:30;100668.94;;;11.48;100.00
66381;BME280;53177;52.648;1.214;2023-08-06T07:00:55;100670.72;;;11.46;100.00
66381;BME280;53177;52.648;1.214;2023-08-06T07:03:21;100677.63;;;11.53;100.00
66381;BME280;53177;52.648;1.214;2023-08-06T07:05:46;100676.78;;;11.51;100.00
66381;BME280;53177;52.648;1.214;2023-08-06T07:08:12;100672.19;;;11.57;100.00
66381;BME280;53177;52.648;1.214;2023-08-06T07:10:37;100674.72;;;11.62;100.00
66381;BME280;53177;52.648;1.214;2023-08-06T07:13:03;100670.06;;;11.70;100.00
66381;BME280;53177;52.648;1.214;2023-08-06T07:15:28;100681.53;;;11.70;100.00
66381;BME280;53177;52.648;1.214;2023-08-06T07:17:53;100690.41;;;11.71;100.00
66381;BME280;53177;52.648;1.214;2023-08-06T07:20:20;100685.97;;;11.70;100.00
66381;BME280;53177;52.648;1.214;2023-08-06T07:22:46;100681.53;;;11.72;100.00
66381;BME280;53177;52.648;1.214;2023-08-06T07:25:11;100687.00;;;11.64;100.00
66381;BME280;53177;52.648;1.214;2023-08-06T07:27:36;100685.09;;;11.69;100.00
66381;BME280;53177;52.648;1.214;2023-08-06T07:30:03;100689.53;;;11.69;100.00
66381;BME280;53177;52.648;1.214;2023-08-06T07:32:30;100691.97;;;11.78;100.00
66381;BME280;53177;52.648;1.214;2023-08-06T07:34:55;100697.97;;;11.83;100.00
66381;BME280;53177;52.648;1.214;2023-08-06T07:37:26;100690.13;;;11.80;100.00
66381;BME280;53177;52.648;1.214;2023-08-06T07:39:53;100694.34;;;11.87;100.00
66381;BME280;53177;52.648;1.214;2023-08-06T07:42:19;100696.78;;;11.95;100.00
66381;BME280;53177;52.648;1.214;2023-08-06T07:44:57;100708.22;;;11.97;100.00
66381;BME280;53177;52.648;1.214;2023-08-06T07:47:24;100701.97;;;11.98;100.00
66381;BME280;53177;52.648;1.214;2023-08-06T07:49:50;100706.38;;;11.99;100.00
66381;BME280;53177;52.648;1.214;2023-08-06T07:52:15;100719.72;;;11.96;100.00
66381;BME280;53177;52.648;1.214;2023-08-06T07:54:41;100701.19;;;11.94;100.00
66381;BME280;53177;52.648;1.214;2023-08-06T07:57:06;100711.78;;;11.96;100.00
66381;BME280;53177;52.648;1.214;2023-08-06T07:59:31;100715.66;;;11.83;100.00
66381;BME280;53177;52.648;1.214;2023-08-06T08:01:57;100711.41;;;11.77;100.00
66381;BME280;53177;52.648;1.214;2023-08-06T08:04:23;100709.63;;;11.78;100.00
66381;BME280;53177;52.648;1.214;2023-08-06T08:06:48;100707.81;;;11.80;100.00
66381;BME280;53177;52.648;1.214;2023-08-06T08:09:14;100715.84;;;11.77;100.00
66381;BME280;53177;52.648;1.214;2023-08-06T08:11:40;100730.06;;;11.73;100.00
66381;BME280;53177;52.648;1.214;2023-08-06T08:14:06;100726.72;;;11.64;100.00
66381;BME280;53177;52.648;1.214;2023-08-06T08:16:31;100727.69;;;11.62;100.00
66381;BME280;53177;52.648;1.214;2023-08-06T08:18:57;100730.25;;;11.65;100.00
66381;BME280;53177;52.648;1.214;2023-08-06T08:21:22;100735.66;;;11.60;100.00
66381;BME280;53177;52.648;1.214;2023-08-06T08:23:49;100733.84;;;11.64;100.00
66381;BME280;53177;52.648;1.214;2023-08-06T08:26:15;100732.88;;;11.66;100.00
66381;BME280;53177;52.648;1.214;2023-08-06T08:28:40;100739.69;;;11.77;100.00
66381;BME280;53177;52.648;1.214;2023-08-06T08:31:11;100744.88;;;11.81;100.00
66381;BME280;53177;52.648;1.214;2023-08-06T08:33:37;100737.59;;;11.89;100.00
66381;BME280;53177;52.648;1.214;2023-08-06T08:36:03;100739.88;;;12.01;100.00
66381;BME280;53177;52.648;1.214;2023-08-06T08:38:29;100743.63;;;12.24;100.00
66381;BME280;53177;52.648;1.214;2023-08-06T08:40:54;100736.78;;;12.16;100.00
66381;BME280;53177;52.648;1.214;2023-08-06T08:43:23;100748.13;;;12.22;100.00
66381;BME280;53177;52.648;1.214;2023-08-06T08:45:50;100752.81;;;12.43;100.00
66381;BME280;53177;52.648;1.214;2023-08-06T08:48:16;100753.31;;;12.26;100.00
66381;BME280;53177;52.648;1.214;2023-08-06T08:50:45;100754.91;;;12.32;100.00
66381;BME280;53177;52.648;1.214;2023-08-06T08:53:11;100753.69;;;12.42;100.00
66381;BME280;53177;52.648;1.214;2023-08-06T08:55:38;100763.53;;;12.38;100.00
66381;BME280;53177;52.648;1.214;2023-08-06T08:58:03;100765.72;;;12.55;100.00
66381;BME280;53177;52.648;1.214;2023-08-06T09:00:30;100772.03;;;12.79;100.00
66381;BME280;53177;52.648;1.214;2023-08-06T09:02:57;100770.16;;;13.11;100.00
66381;BME280;53177;52.648;1.214;2023-08-06T09:05:25;100766.72;;;13.08;100.00
66381;BME280;53177;52.648;1.214;2023-08-06T09:07:52;100776.03;;;13.21;100.00
66381;BME280;53177;52.648;1.214;2023-08-06T09:10:20;100772.16;;;13.31;100.00
66381;BME280;53177;52.648;1.214;2023-08-06T09:12:50;100778.19;;;13.62;100.00
66381;BME280;53177;52.648;1.214;2023-08-06T09:15:16;100781.75;;;13.61;100.00
66381;BME280;53177;52.648;1.214;2023-08-06T09:17:41;100782.66;;;13.60;100.00
66381;BME280;53177;52.648;1.214;2023-08-06T09:20:14;100791.53;;;13.86;100.00
66381;BME280;53177;52.648;1.214;2023-08-06T09:22:40;100776.91;;;13.99;100.00
66381;BME280;53177;52.648;1.214;2023-08-06T09:25:07;100804.88;;;14.09;100.00
66381;BME280;53177;52.648;1.214;2023-08-06T09:27:36;100796.06;;;14.32;100.00
66381;BME280;53177;52.648;1.214;2023-08-06T09:30:03;100787.34;;;14.28;100.00
66381;BME280;53177;52.648;1.214;2023-08-06T09:32:49;100789.28;;;14.23;100.00
66381;BME280;53177;52.648;1.214;2023-08-06T09:35:18;100788.13;;;14.07;100.00
66381;BME280;53177;52.648;1.214;2023-08-06T09:37:44;100793.34;;;14.10;99.78
66381;BME280;53177;52.648;1.214;2023-08-06T09:40:30;100807.91;;;14.23;97.01
66381;BME280;53177;52.648;1.214;2023-08-06T09:42:57;100811.78;;;14.39;95.44
66381;BME280;53177;52.648;1.214;2023-08-06T09:45:28;100805.81;;;14.33;93.69
66381;BME280;53177;52.648;1.214;2023-08-06T09:47:58;100811.53;;;14.22;93.62
66381;BME280;53177;52.648;1.214;2023-08-06T09:50:30;100811.97;;;14.35;97.13
66381;BME280;53177;52.648;1.214;2023-08-06T09:53:01;100824.94;;;14.44;97.98
66381;BME280;53177;52.648;1.214;2023-08-06T09:55:27;100822.88;;;14.52;95.73
66381;BME280;53177;52.648;1.214;2023-08-06T09:57:53;100833.66;;;14.47;93.04
66381;BME280;53177;52.648;1.214;2023-08-06T10:00:20;100838.88;;;14.50;94.55
66381;BME280;53177;52.648;1.214;2023-08-06T10:02:48;100839.16;;;14.89;90.03
66381;BME280;53177;52.648;1.214;2023-08-06T10:05:15;100831.91;;;14.93;88.50
66381;BME280;53177;52.648;1.214;2023-08-06T10:07:42;100844.41;;;15.14;89.84
66381;BME280;53177;52.648;1.214;2023-08-06T10:10:08;100851.34;;;14.96;93.25
66381;BME280;53177;52.648;1.214;2023-08-06T10:12:38;100846.75;;;14.77;95.37
66381;BME280;53177;52.648;1.214;2023-08-06T10:15:09;100843.97;;;14.80;94.54
66381;BME280;53177;52.648;1.214;2023-08-06T10:17:36;100838.69;;;14.78;99.54
66381;BME280;53177;52.648;1.214;2023-08-06T10:20:04;100855.47;;;14.57;96.16
66381;BME280;53177;52.648;1.214;2023-08-06T10:22:32;100846.34;;;14.41;93.69
66381;BME280;53177;52.648;1.214;2023-08-06T10:24:59;100853.84;;;14.53;90.90
66381;BME280;53177;52.648;1.214;2023-08-06T10:27:40;100868.31;;;14.46;93.88
66381;BME280;53177;52.648;1.214;2023-08-06T10:30:29;100862.78;;;14.52;95.39
66381;BME280;53177;52.648;1.214;2023-08-06T10:33:02;100870.56;;;14.56;96.14
66381;BME280;53177;52.648;1.214;2023-08-06T10:38:15;100873.03;;;14.63;95.49
66381;BME280;53177;52.648;1.214;2023-08-06T10:41:02;100863.94;;;15.15;92.26
66381;BME280;53177;52.648;1.214;2023-08-06T10:43:35;100861.34;;;14.90;91.52
66381;BME280;53177;52.648;1.214;2023-08-06T10:46:04;100873.38;;;14.77;93.49
66381;BME280;53177;52.648;1.214;2023-08-06T10:48:38;100876.63;;;14.61;95.74
66381;BME280;53177;52.648;1.214;2023-08-06T10:51:09;100876.94;;;14.52;97.59
66381;BME280;53177;52.648;1.214;2023-08-06T10:53:34;100877.13;;;14.71;93.07
66381;BME280;53177;52.648;1.214;2023-08-06T10:56:13;100885.09;;;14.96;91.33
66381;BME280;53177;52.648;1.214;2023-08-06T10:58:40;100883.13;;;15.23;90.82
66381;BME280;53177;52.648;1.214;2023-08-06T11:01:05;100872.59;;;15.20;91.51
66381;BME280;53177;52.648;1.214;2023-08-06T11:03:31;100881.09;;;15.07;90.91
66381;BME280;53177;52.648;1.214;2023-08-06T11:05:58;100871.69;;;15.21;90.30
66381;BME280;53177;52.648;1.214;2023-08-06T11:08:27;100876.25;;;15.17;92.39
66381;BME280;53177;52.648;1.214;2023-08-06T11:10:53;100879.38;;;15.28;90.24
66381;BME280;53177;52.648;1.214;2023-08-06T11:13:19;100870.81;;;15.20;85.33
66381;BME280;53177;52.648;1.214;2023-08-06T11:15:45;100881.88;;;15.76;90.36
66381;BME280;53177;52.648;1.214;2023-08-06T11:18:11;100884.09;;;15.67;83.18
66381;BME280;53177;52.648;1.214;2023-08-06T11:20:36;100883.78;;;15.94;82.32
66381;BME280;53177;52.648;1.214;2023-08-06T11:23:02;100883.06;;;15.91;79.96
66381;BME280;53177;52.648;1.214;2023-08-06T11:25:28;100877.41;;;15.98;79.97
66381;BME280;53177;52.648;1.214;2023-08-06T11:27:54;100871.94;;;16.01;80.78
66381;BME280;53177;52.648;1.214;2023-08-06T11:30:20;100875.41;;;16.24;82.44
66381;BME280;53177;52.648;1.214;2023-08-06T11:32:49;100879.94;;;16.01;81.27
66381;BME280;53177;52.648;1.214;2023-08-06T11:35:15;100881.50;;;15.64;83.90
66381;BME280;53177;52.648;1.214;2023-08-06T11:37:45;100878.94;;;15.39;85.07
66381;BME280;53177;52.648;1.214;2023-08-06T11:40:17;100895.94;;;15.36;82.82
66381;BME280;53177;52.648;1.214;2023-08-06T11:42:43;100885.88;;;15.66;82.29
66381;BME280;53177;52.648;1.214;2023-08-06T11:45:08;100888.34;;;15.49;82.95
66381;BME280;53177;52.648;1.214;2023-08-06T11:47:38;100892.41;;;15.13;84.42
66381;BME280;53177;52.648;1.214;2023-08-06T11:50:03;100895.50;;;15.25;85.86
66381;BME280;53177;52.648;1.214;2023-08-06T11:52:31;100895.72;;;15.19;86.78
66381;BME280;53177;52.648;1.214;2023-08-06T11:57:29;100899.03;;;15.02;87.12
66381;BME280;53177;52.648;1.214;2023-08-06T12:00:01;100898.69;;;15.56;83.99
66381;BME280;53177;52.648;1.214;2023-08-06T12:02:26;100889.75;;;16.21;84.68
66381;BME280;53177;52.648;1.214;2023-08-06T12:05:09;100897.09;;;16.16;81.41
66381;BME280;53177;52.648;1.214;2023-08-06T12:07:38;100897.34;;;16.10;82.88
66381;BME280;53177;52.648;1.214;2023-08-06T12:10:04;100904.28;;;15.72;82.43
66381;BME280;53177;52.648;1.214;2023-08-06T12:12:30;100907.03;;;15.47;80.07
66381;BME280;53177;52.648;1.214;2023-08-06T12:14:55;100915.03;;;15.47;81.44
66381;BME280;53177;52.648;1.214;2023-08-06T12:17:22;100924.22;;;16.05;79.67
66381;BME280;53177;52.648;1.214;2023-08-06T12:19:47;100918.84;;;16.47;77.99
66381;BME280;53177;52.648;1.214;2023-08-06T12:22:14;100917.72;;;16.33;74.92
66381;BME280;53177;52.648;1.214;2023-08-06T12:24:43;100920.09;;;16.19;77.23
66381;BME280;53177;52.648;1.214;2023-08-06T12:27:09;100913.03;;;16.18;78.92
66381;BME280;53177;52.648;1.214;2023-08-06T12:29:36;100913.81;;;16.20;78.21
66381;BME280;53177;52.648;1.214;2023-08-06T12:32:03;100930.25;;;15.67;77.82
66381;BME280;53177;52.648;1.214;2023-08-06T12:34:29;100932.19;;;16.07;77.70
66381;BME280;53177;52.648;1.214;2023-08-06T12:36:54;100940.69;;;15.95;75.41
66381;BME280;53177;52.648;1.214;2023-08-06T12:39:19;100943.19;;;15.78;75.91
66381;BME280;53177;52.648;1.214;2023-08-06T12:41:45;100936.84;;;15.80;75.46
66381;BME280;53177;52.648;1.214;2023-08-06T12:44:11;100949.75;;;15.69;73.96
66381;BME280;53177;52.648;1.214;2023-08-06T12:46:37;100943.09;;;15.79;73.63
66381;BME280;53177;52.648;1.214;2023-08-06T12:49:02;100943.66;;;15.87;76.07
66381;BME280;53177;52.648;1.214;2023-08-06T12:51:27;100938.72;;;16.20;76.58